Airfield :
LOGIN :

Register | Disclaimer

   EN    FR    IT 

 










Legend :    VFR   Marginal VFR   IFR   Intensive IFR   Very Intensive IFR
Visi :
Ceiling :
>= 8 km
>= 3000ft
5 to 8 km
1000 to 3000 ft
1500m to 5 km
500 to 1000 ft
800 to 1500m
200 to 500 ft
< 800m
< 200 ft
Symbols :   Thunderstorms  Fog  Heavy snow  Heavy precipitations  Wind > 20 kt
SIGMETs :     Misc.  Thunderstorms  Icing  Turbulence  Mountain Waves  Volcanic Ashes






- Airport Elevation : 459 ft
- IATA code : CER


LFRC - Cherbourg / Maupertus

CURRENT METAR :
  • 200000Z AUTO 13005KT CAVOK 07/05 Q1023

EXPIRED METARs :
  • 192330Z AUTO 11006KT CAVOK 08/06 Q1023
  • 192300Z AUTO 11006KT CAVOK 08/07 Q1023
  • 192230Z AUTO 11007KT CAVOK 09/07 Q1022
  • 192200Z AUTO 09009KT 9999 FEW011 09/08 Q1022
  • 192130Z AUTO 02008KT 340V050 9999 FEW010 10/09 Q1022
  • 192100Z AUTO 32006KT 280V010 9999 FEW044 SCT052 10/09 Q1021
  • 192030Z AUTO 28006KT CAVOK 10/09 Q1021
  • 192000Z AUTO 31008KT 9999 FEW007 10/09 Q1021
  • 191930Z AUTO 29007KT 9999 FEW009 10/09 Q1020

Expired Forecast.



MET'MAP, your aeronautical weather chart ! - Copyright ORBIFLY December 2007 - Disclaimer

ORBIFLY MET'MAP TEAM :

Programming & Development : Alexandra Zaïnal
Original concept : Baudouin d'Aumeries
Technical & hardware support : Manuel Goepfert
Assistance : Marc-Olivier Méhu




SOURCES & CREDITS :

   NOAA